sensor_id;sensor_type;location;lat;lon;timestamp;pressure;altitude;pressure_sealevel;temperature;humidity
45941;BME280;31858;46.008;8.978;2023-03-03T00:01:55;94471.88;;;4.38;100.00
45941;BME280;31858;46.008;8.978;2023-03-03T00:11:59;94463.31;;;4.29;100.00
45941;BME280;31858;46.008;8.978;2023-03-03T00:22:13;94462.25;;;4.18;100.00
45941;BME280;31858;46.008;8.978;2023-03-03T00:32:24;94460.06;;;4.08;100.00
45941;BME280;31858;46.008;8.978;2023-03-03T00:42:27;94452.25;;;3.99;100.00
45941;BME280;31858;46.008;8.978;2023-03-03T00:52:34;94457.53;;;3.99;100.00
45941;BME280;31858;46.008;8.978;2023-03-03T01:02:37;94440.50;;;3.97;100.00
45941;BME280;31858;46.008;8.978;2023-03-03T01:12:39;94449.97;;;3.98;100.00
45941;BME280;31858;46.008;8.978;2023-03-03T01:22:42;94436.59;;;3.78;100.00
45941;BME280;31858;46.008;8.978;2023-03-03T01:32:44;94435.94;;;3.81;100.00
45941;BME280;31858;46.008;8.978;2023-03-03T01:42:47;94436.25;;;3.68;100.00
45941;BME280;31858;46.008;8.978;2023-03-03T01:52:49;94433.53;;;3.76;100.00
45941;BME280;31858;46.008;8.978;2023-03-03T02:02:52;94424.75;;;3.72;100.00
45941;BME280;31858;46.008;8.978;2023-03-03T02:12:56;94405.84;;;3.70;100.00
45941;BME280;31858;46.008;8.978;2023-03-03T02:23:05;94394.44;;;3.66;100.00
45941;BME280;31858;46.008;8.978;2023-03-03T02:33:09;94383.91;;;3.66;100.00
45941;BME280;31858;46.008;8.978;2023-03-03T02:43:11;94378.19;;;3.64;100.00
45941;BME280;31858;46.008;8.978;2023-03-03T02:53:14;94367.88;;;3.59;100.00
45941;BME280;31858;46.008;8.978;2023-03-03T03:03:15;94360.19;;;3.54;100.00
45941;BME280;31858;46.008;8.978;2023-03-03T03:13:18;94358.97;;;3.51;100.00
45941;BME280;31858;46.008;8.978;2023-03-03T03:23:20;94351.53;;;3.53;100.00
45941;BME280;31858;46.008;8.978;2023-03-03T03:33:23;94343.72;;;3.45;100.00
45941;BME280;31858;46.008;8.978;2023-03-03T03:43:27;94331.31;;;3.57;100.00
45941;BME280;31858;46.008;8.978;2023-03-03T03:53:30;94324.41;;;3.65;100.00
45941;BME280;31858;46.008;8.978;2023-03-03T04:03:32;94323.09;;;3.59;100.00
45941;BME280;31858;46.008;8.978;2023-03-03T04:13:35;94325.38;;;3.60;100.00
45941;BME280;31858;46.008;8.978;2023-03-03T04:23:36;94316.41;;;3.49;100.00
45941;BME280;31858;46.008;8.978;2023-03-03T04:33:39;94304.88;;;3.17;100.00
45941;BME280;31858;46.008;8.978;2023-03-03T04:43:41;94295.56;;;3.20;100.00
45941;BME280;31858;46.008;8.978;2023-03-03T04:53:44;94303.34;;;3.16;100.00
45941;BME280;31858;46.008;8.978;2023-03-03T05:03:45;94293.81;;;3.12;100.00
45941;BME280;31858;46.008;8.978;2023-03-03T05:13:48;94289.09;;;3.05;100.00
45941;BME280;31858;46.008;8.978;2023-03-03T05:23:50;94291.06;;;3.08;100.00
45941;BME280;31858;46.008;8.978;2023-03-03T05:33:53;94291.06;;;3.20;100.00
45941;BME280;31858;46.008;8.978;2023-03-03T05:43:54;94295.22;;;2.97;100.00
45941;BME280;31858;46.008;8.978;2023-03-03T05:53:57;94287.22;;;3.06;100.00
45941;BME280;31858;46.008;8.978;2023-03-03T06:03:59;94290.97;;;3.05;100.00
45941;BME280;31858;46.008;8.978;2023-03-03T06:14:02;94293.03;;;2.99;100.00
45941;BME280;31858;46.008;8.978;2023-03-03T06:24:04;94301.72;;;3.00;100.00
45941;BME280;31858;46.008;8.978;2023-03-03T06:34:07;94314.41;;;2.85;100.00
45941;BME280;31858;46.008;8.978;2023-03-03T06:44:09;94312.22;;;3.00;100.00
45941;BME280;31858;46.008;8.978;2023-03-03T06:54:14;94322.88;;;3.03;100.00
45941;BME280;31858;46.008;8.978;2023-03-03T07:04:24;94326.94;;;3.01;100.00
45941;BME280;31858;46.008;8.978;2023-03-03T07:14:29;94330.13;;;3.06;100.00
45941;BME280;31858;46.008;8.978;2023-03-03T07:24:31;94335.81;;;3.08;100.00
45941;BME280;31858;46.008;8.978;2023-03-03T07:34:38;94328.69;;;3.21;100.00
45941;BME280;31858;46.008;8.978;2023-03-03T07:44:41;94336.59;;;3.09;100.00
45941;BME280;31858;46.008;8.978;2023-03-03T07:54:44;94329.91;;;3.11;100.00
45941;BME280;31858;46.008;8.978;2023-03-03T08:04:47;94335.81;;;3.08;100.00
45941;BME280;31858;46.008;8.978;2023-03-03T08:14:53;94329.91;;;3.11;100.00
45941;BME280;31858;46.008;8.978;2023-03-03T08:24:55;94330.56;;;3.33;100.00
45941;BME280;31858;46.008;8.978;2023-03-03T08:34:58;94321.09;;;3.68;100.00
45941;BME280;31858;46.008;8.978;2023-03-03T08:45:00;94316.25;;;3.82;100.00
45941;BME280;31858;46.008;8.978;2023-03-03T08:55:03;94320.75;;;3.82;100.00
45941;BME280;31858;46.008;8.978;2023-03-03T09:05:06;94319.47;;;3.91;100.00
45941;BME280;31858;46.008;8.978;2023-03-03T09:15:19;94331.25;;;4.22;100.00
45941;BME280;31858;46.008;8.978;2023-03-03T09:25:30;94332.75;;;4.35;100.00
45941;BME280;31858;46.008;8.978;2023-03-03T09:35:36;94340.97;;;4.62;100.00
45941;BME280;31858;46.008;8.978;2023-03-03T09:45:48;94347.53;;;5.11;100.00
45941;BME280;31858;46.008;8.978;2023-03-03T09:55:57;94333.72;;;5.18;100.00
45941;BME280;31858;46.008;8.978;2023-03-03T10:06:03;94339.75;;;5.34;100.00
45941;BME280;31858;46.008;8.978;2023-03-03T10:16:26;94343.72;;;5.60;100.00
45941;BME280;31858;46.008;8.978;2023-03-03T10:26:50;94347.25;;;5.99;100.00
45941;BME280;31858;46.008;8.978;2023-03-03T10:37:02;94338.06;;;6.50;100.00
45941;BME280;31858;46.008;8.978;2023-03-03T10:47:30;94342.00;;;6.79;100.00
45941;BME280;31858;46.008;8.978;2023-03-03T10:57:44;94344.97;;;7.20;100.00
45941;BME280;31858;46.008;8.978;2023-03-03T11:07:51;94349.34;;;7.58;100.00
45941;BME280;31858;46.008;8.978;2023-03-03T11:18:06;94340.56;;;7.80;100.00
45941;BME280;31858;46.008;8.978;2023-03-03T11:28:21;94337.94;;;8.10;100.00
45941;BME280;31858;46.008;8.978;2023-03-03T11:38:36;94325.13;;;8.16;100.00
45941;BME280;31858;46.008;8.978;2023-03-03T11:48:46;94320.09;;;8.37;100.00
45941;BME280;31858;46.008;8.978;2023-03-03T11:59:00;94313.94;;;9.00;100.00
45941;BME280;31858;46.008;8.978;2023-03-03T12:09:24;94293.69;;;9.33;100.00
45941;BME280;31858;46.008;8.978;2023-03-03T12:19:34;94300.38;;;9.67;100.00
45941;BME280;31858;46.008;8.978;2023-03-03T12:29:48;94293.31;;;9.93;100.00
45941;BME280;31858;46.008;8.978;2023-03-03T12:40:02;94284.00;;;10.27;100.00
45941;BME280;31858;46.008;8.978;2023-03-03T12:50:23;94266.75;;;10.00;100.00
45941;BME280;31858;46.008;8.978;2023-03-03T13:00:39;94268.81;;;10.38;100.00
45941;BME280;31858;46.008;8.978;2023-03-03T13:10:47;94261.56;;;10.28;100.00
45941;BME280;31858;46.008;8.978;2023-03-03T13:20:58;94269.84;;;10.12;100.00
45941;BME280;31858;46.008;8.978;2023-03-03T13:31:04;94265.28;;;10.13;100.00
45941;BME280;31858;46.008;8.978;2023-03-03T13:41:17;94262.72;;;10.45;100.00
45941;BME280;31858;46.008;8.978;2023-03-03T13:51:31;94267.34;;;10.66;100.00
45941;BME280;31858;46.008;8.978;2023-03-03T14:01:50;94262.47;;;11.25;100.00
45941;BME280;31858;46.008;8.978;2023-03-03T14:11:59;94264.75;;;11.30;96.57
45941;BME280;31858;46.008;8.978;2023-03-03T14:22:17;94257.88;;;11.00;99.88
45941;BME280;31858;46.008;8.978;2023-03-03T14:32:24;94254.84;;;11.23;96.19
45941;BME280;31858;46.008;8.978;2023-03-03T14:42:33;94251.78;;;11.57;90.25
45941;BME280;31858;46.008;8.978;2023-03-03T14:52:37;94254.06;;;11.65;89.83
45941;BME280;31858;46.008;8.978;2023-03-03T15:02:42;94255.59;;;11.59;91.72
45941;BME280;31858;46.008;8.978;2023-03-03T15:12:44;94262.47;;;11.46;85.76
45941;BME280;31858;46.008;8.978;2023-03-03T15:22:48;94268.19;;;11.41;87.47
45941;BME280;31858;46.008;8.978;2023-03-03T15:32:58;94268.53;;;10.79;80.74
45941;BME280;31858;46.008;8.978;2023-03-03T15:43:13;94269.44;;;10.10;84.55
45941;BME280;31858;46.008;8.978;2023-03-03T15:53:36;94267.75;;;9.77;88.15
45941;BME280;31858;46.008;8.978;2023-03-03T16:03:46;94274.91;;;9.63;89.70
45941;BME280;31858;46.008;8.978;2023-03-03T16:13:59;94287.03;;;9.57;94.29
45941;BME280;31858;46.008;8.978;2023-03-03T16:24:10;94289.16;;;9.37;100.00
45941;BME280;31858;46.008;8.978;2023-03-03T16:34:24;94308.16;;;9.39;100.00
45941;BME280;31858;46.008;8.978;2023-03-03T16:44:36;94320.66;;;9.35;100.00
45941;BME280;31858;46.008;8.978;2023-03-03T16:54:46;94329.31;;;9.25;100.00
45941;BME280;31858;46.008;8.978;2023-03-03T17:04:58;94329.97;;;9.11;100.00
45941;BME280;31858;46.008;8.978;2023-03-03T17:15:21;94341.22;;;8.94;100.00
45941;BME280;31858;46.008;8.978;2023-03-03T17:25:36;94363.13;;;8.83;100.00
45941;BME280;31858;46.008;8.978;2023-03-03T17:35:56;94379.88;;;8.88;100.00
45941;BME280;31858;46.008;8.978;2023-03-03T17:46:03;94398.22;;;8.66;100.00
45941;BME280;31858;46.008;8.978;2023-03-03T17:56:16;94404.63;;;8.62;100.00
45941;BME280;31858;46.008;8.978;2023-03-03T18:06:35;94405.19;;;8.48;100.00
45941;BME280;31858;46.008;8.978;2023-03-03T18:17:05;94416.13;;;8.43;100.00
45941;BME280;31858;46.008;8.978;2023-03-03T18:27:32;94434.91;;;8.31;100.00
45941;BME280;31858;46.008;8.978;2023-03-03T18:37:38;94442.09;;;8.30;100.00
45941;BME280;31858;46.008;8.978;2023-03-03T18:48:03;94440.25;;;8.08;100.00
45941;BME280;31858;46.008;8.978;2023-03-03T18:58:36;94447.13;;;7.86;100.00
45941;BME280;31858;46.008;8.978;2023-03-03T19:08:51;94448.81;;;7.71;100.00
45941;BME280;31858;46.008;8.978;2023-03-03T19:19:00;94457.28;;;7.80;100.00
45941;BME280;31858;46.008;8.978;2023-03-03T19:29:11;94465.69;;;7.86;100.00
45941;BME280;31858;46.008;8.978;2023-03-03T19:39:26;94469.56;;;7.66;100.00
45941;BME280;31858;46.008;8.978;2023-03-03T19:49:47;94475.84;;;7.35;100.00
45941;BME280;31858;46.008;8.978;2023-03-03T19:59:59;94492.16;;;7.37;100.00
45941;BME280;31858;46.008;8.978;2023-03-03T20:21:03;94517.56;;;7.18;100.00
45941;BME280;31858;46.008;8.978;2023-03-03T20:31:14;94525.09;;;7.16;100.00
45941;BME280;31858;46.008;8.978;2023-03-03T20:41:28;94531.78;;;7.10;100.00
45941;BME280;31858;46.008;8.978;2023-03-03T20:51:38;94536.88;;;7.00;100.00
45941;BME280;31858;46.008;8.978;2023-03-03T21:01:47;94550.03;;;6.96;100.00
45941;BME280;31858;46.008;8.978;2023-03-03T21:11:54;94548.78;;;6.90;100.00
45941;BME280;31858;46.008;8.978;2023-03-03T21:21:57;94557.91;;;6.93;100.00
45941;BME280;31858;46.008;8.978;2023-03-03T21:32:02;94564.16;;;6.84;100.00
45941;BME280;31858;46.008;8.978;2023-03-03T21:42:05;94570.78;;;6.75;100.00
45941;BME280;31858;46.008;8.978;2023-03-03T21:52:09;94572.31;;;6.76;100.00
45941;BME280;31858;46.008;8.978;2023-03-03T22:02:11;94568.66;;;6.65;100.00
45941;BME280;31858;46.008;8.978;2023-03-03T22:12:14;94570.13;;;6.62;100.00
45941;BME280;31858;46.008;8.978;2023-03-03T22:22:15;94571.16;;;6.58;100.00
45941;BME280;31858;46.008;8.978;2023-03-03T22:32:18;94575.13;;;6.48;100.00
45941;BME280;31858;46.008;8.978;2023-03-03T22:42:20;94580.75;;;6.46;100.00
45941;BME280;31858;46.008;8.978;2023-03-03T22:52:24;94574.69;;;6.30;100.00
45941;BME280;31858;46.008;8.978;2023-03-03T23:02:27;94580.09;;;6.34;100.00
45941;BME280;31858;46.008;8.978;2023-03-03T23:12:30;94578.81;;;6.28;100.00
45941;BME280;31858;46.008;8.978;2023-03-03T23:22:31;94583.16;;;6.20;100.00
45941;BME280;31858;46.008;8.978;2023-03-03T23:32:34;94576.59;;;6.14;100.00
45941;BME280;31858;46.008;8.978;2023-03-03T23:42:36;94587.59;;;6.16;100.00
45941;BME280;31858;46.008;8.978;2023-03-03T23:52:39;94590.56;;;5.99;100.00
